Shell Fueler — WZW7217 — position and weather

sailwx.info

Track history (hours):
 
Tides and Currents Weather Stations Pressure Air Temp Water Temp Dewpoint Dewpoint Depression Visibility Wind Speed Wind Dir Waves Ship Positions

Shell Fueler

Owner: JOHN W STONE OIL DIST .LLC, GRETNA, LA. More information available from US FCC via Universal Licensing System and Coast Guard Vessel Documentation Center.

Last reported at 2015-Apr-20 23:26 UTC. Time now 2015-Apr-21 09:48 UTC.
Position N 29°55' W 090°04'.

Length 21 m; draft 2.5 m.

Type: Towing. MMSI: 366954210.

Date/timePositionNaut miles runAvg speedWind from/ knotsBaromVisibWave heightAir tempDewpointWater temp
2015-Apr-20 23:26N 29°55' W 090°04'0 0.0
2015-Apr-20 22:32N 29°55' W 090°04'0 0.0
2015-Apr-20 21:22N 29°55' W 090°04'0 0.1
2015-Apr-20 19:33N 29°55' W 090°04'0 0.0
2015-Apr-20 18:15N 29°55' W 090°04'0 0.0
2015-Apr-20 17:26N 29°55' W 090°04'0 0.0
2015-Apr-20 16:12N 29°55' W 090°04'1 1.2
2015-Apr-20 15:32N 29°56' W 090°03'2 2.1
2015-Apr-20 14:33N 29°57' W 090°01'4 3.0
2015-Apr-20 13:11N 29°55' W 089°57'13 2.6
2015-Apr-20 08:13N 29°43' W 089°59'13 0.4
2015-Apr-19 01:09N 29°55' W 090°04'0 0.0
2015-Apr-19 00:10N 29°55' W 090°04'0 0.0
2015-Apr-18 22:31N 29°55' W 090°04'0 0.0
2015-Apr-18 21:33N 29°55' W 090°04'0 0.0
2015-Apr-18 20:09N 29°55' W 090°04'0 0.0
2015-Apr-18 19:28N 29°55' W 090°04'0 0.0
2015-Apr-18 18:22N 29°55' W 090°04'0 0.0
2015-Apr-18 17:32N 29°55' W 090°04'0 0.0
2015-Apr-18 16:33N 29°55' W 090°04'0 0.0
2015-Apr-18 15:29N 29°55' W 090°04'0 0.0
2015-Apr-18 14:32N 29°55' W 090°04'2 1.7
2015-Apr-18 13:33N 29°57' W 090°03'3 2.7
2015-Apr-18 12:31N 29°56' W 090°00'3 2.6
2015-Apr-18 11:26N 29°55' W 089°57'2 0.1
2015-Apr-17 04:10N 29°53' W 089°58'3 3.2
2015-Apr-17 03:18N 29°55' W 089°56'6 8.4
2015-Apr-17 02:33N 29°58' W 090°03'2 2.3
2015-Apr-17 01:32N 29°55' W 090°04'0 0.0
2015-Apr-17 00:32N 29°55' W 090°04'0 0.3
2015-Apr-16 23:26N 29°56' W 090°04'0 0.5
2015-Apr-16 22:33N 29°55' W 090°04'0 0.0
2015-Apr-16 21:33N 29°55' W 090°04'0 0.0
2015-Apr-16 20:33N 29°55' W 090°04'0 0.0
2015-Apr-16 19:32N 29°55' W 090°04'0 0.1
2015-Apr-16 18:32N 29°55' W 090°04'0 0.0
2015-Apr-16 17:33N 29°55' W 090°04'4 0.2
2015-Apr-15 19:10N 29°56' W 089°60'0 0.0
2015-Apr-15 17:24N 29°56' W 089°60'3 3.7
2015-Apr-15 16:28N 29°58' W 090°03'2 2.1
2015-Apr-15 15:28N 29°56' W 090°04'0 0.2
2015-Apr-15 14:24N 29°55' W 090°04'0 0.0
2015-Apr-15 13:26N 29°55' W 090°04'0 0.0
2015-Apr-15 12:32N 29°55' W 090°04'0 0.1
2015-Apr-15 11:32N 29°55' W 090°04'0 0.0
2015-Apr-15 10:23N 29°55' W 090°04'0 0.0
2015-Apr-15 09:26N 29°55' W 090°04'0 0.0
2015-Apr-15 08:33N 29°55' W 090°04'0 0.0
2015-Apr-15 07:33N 29°55' W 090°04'0 0.0
2015-Apr-15 06:33N 29°55' W 090°04'1 1.2
2015-Apr-15 05:26N 29°54' W 090°05'1 1.2
2015-Apr-15 04:33N 29°53' W 090°05'1 0.4
2015-Apr-15 03:22N 29°53' W 090°04'22 0.5
2015-Apr-13 06:26N 29°37' W 090°21'23 3.6
2015-Apr-13 00:04N 29°55' W 090°05'2 0.6
2015-Apr-12 21:30N 29°55' W 090°04'2 1.7
2015-Apr-12 20:23N 29°57' W 090°03'2 1.9
2015-Apr-12 19:24N 29°57' W 090°01'0 0.0
2015-Apr-12 18:29N 29°57' W 090°01'0 0.0
2015-Apr-12 16:33N 29°57' W 090°01'1 0.6
2015-Apr-12 15:18N 29°57' W 090°01'0 0.0
2015-Apr-12 14:24N 29°57' W 090°00'0 0.0
2015-Apr-12 13:22N 29°57' W 090°00'0 0.0
2015-Apr-12 12:25N 29°57' W 090°00'1 1.3
2015-Apr-12 11:28N 29°57' W 090°02'2 2.5
2015-Apr-12 10:30N 29°55' W 090°04'0 0.1
2015-Apr-12 09:33N 29°56' W 090°04'0 0.0
2015-Apr-12 08:33N 29°56' W 090°04'0 0.0
2015-Apr-12 07:32N 29°56' W 090°04'0 0.0
2015-Apr-12 06:34N 29°56' W 090°04'0 0.0
2015-Apr-12 05:33N 29°56' W 090°04'0 0.0
2015-Apr-12 04:32N 29°56' W 090°04'0 0.0
2015-Apr-12 03:33N 29°56' W 090°04'3 2.7
2015-Apr-12 02:29N 29°56' W 090°00'4 3.8
2015-Apr-12 01:29N 29°55' W 089°56'  
Track history (hours):
 
Tides and Currents Weather Stations Pressure Air Temp Water Temp Dewpoint Dewpoint Depression Visibility Wind Speed Wind Dir Waves Ship Positions

Shell Fueler

Owner: JOHN W STONE OIL DIST .LLC, GRETNA, LA. More information available from US FCC via Universal Licensing System and Coast Guard Vessel Documentation Center.

Last reported at 2015-Apr-20 23:26 UTC. Time now 2015-Apr-21 09:48 UTC.
Position N 29°55' W 090°04'.

Length 21 m; draft 2.5 m.

Type: Towing. MMSI: 366954210.

Date/timePositionNaut miles runAvg speedWind from/ knotsBaromVisibWave heightAir tempDewpointWater temp
2015-Apr-20 23:26N 29°55' W 090°04'0 0.0
2015-Apr-20 22:32N 29°55' W 090°04'0 0.0
2015-Apr-20 21:22N 29°55' W 090°04'0 0.1
2015-Apr-20 19:33N 29°55' W 090°04'0 0.0
2015-Apr-20 18:15N 29°55' W 090°04'0 0.0
2015-Apr-20 17:26N 29°55' W 090°04'0 0.0
2015-Apr-20 16:12N 29°55' W 090°04'1 1.2
2015-Apr-20 15:32N 29°56' W 090°03'2 2.1
2015-Apr-20 14:33N 29°57' W 090°01'4 3.0
2015-Apr-20 13:11N 29°55' W 089°57'13 2.6
2015-Apr-20 08:13N 29°43' W 089°59'13 0.4
2015-Apr-19 01:09N 29°55' W 090°04'0 0.0
2015-Apr-19 00:10N 29°55' W 090°04'0 0.0
2015-Apr-18 22:31N 29°55' W 090°04'0 0.0
2015-Apr-18 21:33N 29°55' W 090°04'0 0.0
2015-Apr-18 20:09N 29°55' W 090°04'0 0.0
2015-Apr-18 19:28N 29°55' W 090°04'0 0.0
2015-Apr-18 18:22N 29°55' W 090°04'0 0.0
2015-Apr-18 17:32N 29°55' W 090°04'0 0.0
2015-Apr-18 16:33N 29°55' W 090°04'0 0.0
2015-Apr-18 15:29N 29°55' W 090°04'0 0.0
2015-Apr-18 14:32N 29°55' W 090°04'2 1.7
2015-Apr-18 13:33N 29°57' W 090°03'3 2.7
2015-Apr-18 12:31N 29°56' W 090°00'3 2.6
2015-Apr-18 11:26N 29°55' W 089°57'2 0.1
2015-Apr-17 04:10N 29°53' W 089°58'3 3.2
2015-Apr-17 03:18N 29°55' W 089°56'6 8.4
2015-Apr-17 02:33N 29°58' W 090°03'2 2.3
2015-Apr-17 01:32N 29°55' W 090°04'0 0.0
2015-Apr-17 00:32N 29°55' W 090°04'0 0.3
2015-Apr-16 23:26N 29°56' W 090°04'0 0.5
2015-Apr-16 22:33N 29°55' W 090°04'0 0.0
2015-Apr-16 21:33N 29°55' W 090°04'0 0.0
2015-Apr-16 20:33N 29°55' W 090°04'0 0.0
2015-Apr-16 19:32N 29°55' W 090°04'0 0.1
2015-Apr-16 18:32N 29°55' W 090°04'0 0.0
2015-Apr-16 17:33N 29°55' W 090°04'4 0.2
2015-Apr-15 19:10N 29°56' W 089°60'0 0.0
2015-Apr-15 17:24N 29°56' W 089°60'3 3.7
2015-Apr-15 16:28N 29°58' W 090°03'2 2.1
2015-Apr-15 15:28N 29°56' W 090°04'0 0.2
2015-Apr-15 14:24N 29°55' W 090°04'0 0.0
2015-Apr-15 13:26N 29°55' W 090°04'0 0.0
2015-Apr-15 12:32N 29°55' W 090°04'0 0.1
2015-Apr-15 11:32N 29°55' W 090°04'0 0.0
2015-Apr-15 10:23N 29°55' W 090°04'0 0.0
2015-Apr-15 09:26N 29°55' W 090°04'0 0.0
2015-Apr-15 08:33N 29°55' W 090°04'0 0.0
2015-Apr-15 07:33N 29°55' W 090°04'0 0.0
2015-Apr-15 06:33N 29°55' W 090°04'1 1.2
2015-Apr-15 05:26N 29°54' W 090°05'1 1.2
2015-Apr-15 04:33N 29°53' W 090°05'1 0.4
2015-Apr-15 03:22N 29°53' W 090°04'22 0.5
2015-Apr-13 06:26N 29°37' W 090°21'23 3.6
2015-Apr-13 00:04N 29°55' W 090°05'2 0.6
2015-Apr-12 21:30N 29°55' W 090°04'2 1.7
2015-Apr-12 20:23N 29°57' W 090°03'2 1.9
2015-Apr-12 19:24N 29°57' W 090°01'0 0.0
2015-Apr-12 18:29N 29°57' W 090°01'0 0.0
2015-Apr-12 16:33N 29°57' W 090°01'1 0.6
2015-Apr-12 15:18N 29°57' W 090°01'0 0.0
2015-Apr-12 14:24N 29°57' W 090°00'0 0.0
2015-Apr-12 13:22N 29°57' W 090°00'0 0.0
2015-Apr-12 12:25N 29°57' W 090°00'1 1.3
2015-Apr-12 11:28N 29°57' W 090°02'2 2.5
2015-Apr-12 10:30N 29°55' W 090°04'0 0.1
2015-Apr-12 09:33N 29°56' W 090°04'0 0.0
2015-Apr-12 08:33N 29°56' W 090°04'0 0.0
2015-Apr-12 07:32N 29°56' W 090°04'0 0.0
2015-Apr-12 06:34N 29°56' W 090°04'0 0.0
2015-Apr-12 05:33N 29°56' W 090°04'0 0.0
2015-Apr-12 04:32N 29°56' W 090°04'0 0.0
2015-Apr-12 03:33N 29°56' W 090°04'3 2.7
2015-Apr-12 02:29N 29°56' W 090°00'4 3.8
2015-Apr-12 01:29N 29°55' W 089°56'  

Dump ship's entire track history